Ashdown, Arkansas
Current Conditions -  °F | °C
As of 11:53 AM on Friday 19 Dec 2014 (Local Time) from KTXK Reporting Station
Overcast Overcast  
Wind Chill: 42°   Ceiling: 600
Heat Index: 45°   Visibility: 8mi
Dew Point: 43°   Wind: 6mph
Humidity: 93%   Direction: NA
Pressure: 30.17"   Gusts: NA
Location:  33.67°N, 94.13°W
Report Text: KTXK 191753Z VRB05KT 8SM OVC006 07/06 A3017 RMK AO2 CIG 005V009 SLP216 60000 T00720061 10072 20056 58024
Loading
Personal Weather Stations






























Interactive Weather Map New forecast layout! Learn more

10-Day Weather Forecast

Advertisements
Track Severe Weather on mobile